Newton, Wisconsin
Current Conditions -  °F | °C
As of 3:56 PM on Monday 24 Nov 2014 (Local Time) from KMTW Reporting Station
Light Snow Light Snow  
Wind Chill: 25°   Ceiling: 700
Heat Index: 33°   Visibility: 1.2mi
Dew Point: 33°   Wind: 10mph
Humidity: 100%   Direction: 270°W
Pressure: 29.26"   Gusts: NA
Location:  43.99°N, 87.73°W
Report Text: KMTW 242156Z AUTO 27009KT 1 1/4SM -SN BR BKN007 OVC015 01/01 A2926 RMK AO2 RAE12UPB12E19SNB19 CIG 006V013 PRESRR SLP933 P0004 T00060006 FZRANO
Loading
Personal Weather Stations






























Interactive Weather Map New forecast layout! Learn more

10-Day Weather Forecast

Advertisements
Track Severe Weather on mobile